createdAt,value
2018-01-07T00:00:25.029Z,13.66
2018-01-07T00:01:25.020Z,13.57
2018-01-07T00:02:25.013Z,13.26
2018-01-07T00:03:25.053Z,13.81
2018-01-07T00:04:24.991Z,12.89
2018-01-07T00:05:24.988Z,13.34
2018-01-07T00:06:24.975Z,13.29
2018-01-07T00:07:24.969Z,14.34
2018-01-07T00:08:24.960Z,14.26
2018-01-07T00:09:24.951Z,14.74
2018-01-07T00:10:24.946Z,14.36
2018-01-07T00:11:24.938Z,14.05
2018-01-07T00:12:24.934Z,14.23
2018-01-07T00:13:24.920Z,14.73
2018-01-07T00:14:24.914Z,14.58
2018-01-07T00:15:24.905Z,14.90
2018-01-07T00:16:24.897Z,15.17
2018-01-07T00:17:24.900Z,14.43
2018-01-07T00:18:24.889Z,14.48
2018-01-07T00:19:24.872Z,15.33
2018-01-07T00:20:24.861Z,15.54
2018-01-07T00:21:24.854Z,14.61
2018-01-07T00:22:24.846Z,14.78
2018-01-07T00:23:24.838Z,14.82
2018-01-07T00:24:24.828Z,15.88
2018-01-07T00:25:24.820Z,15.41
2018-01-07T00:26:24.807Z,15.44
2018-01-07T00:27:24.807Z,15.00
2018-01-07T00:28:24.801Z,15.18
2018-01-07T00:29:24.799Z,15.46
2018-01-07T00:30:24.790Z,15.04
2018-01-07T00:31:24.776Z,14.64
2018-01-07T00:32:24.768Z,14.88
2018-01-07T00:33:24.760Z,15.48
2018-01-07T00:34:24.750Z,15.02
2018-01-07T00:35:24.737Z,14.90
2018-01-07T00:36:24.729Z,15.65
2018-01-07T00:37:24.727Z,15.83
2018-01-07T00:38:24.715Z,15.26
2018-01-07T00:39:24.710Z,15.01
2018-01-07T00:40:24.697Z,15.52
2018-01-07T00:41:24.690Z,15.36
2018-01-07T00:42:24.682Z,15.30
2018-01-07T00:43:24.677Z,15.02
2018-01-07T00:44:24.673Z,14.84
2018-01-07T00:45:24.662Z,15.48
2018-01-07T00:46:24.664Z,15.34
2018-01-07T00:47:24.641Z,15.06
2018-01-07T00:48:24.635Z,14.88
2018-01-07T00:49:24.627Z,14.53
2018-01-07T00:50:24.623Z,14.77
2018-01-07T00:51:24.614Z,14.77
2018-01-07T00:52:24.602Z,14.56
2018-01-07T00:53:24.595Z,15.26
2018-01-07T00:54:24.583Z,15.27
2018-01-07T00:55:24.584Z,15.09
2018-01-07T00:56:24.572Z,15.31
2018-01-07T00:57:24.567Z,15.26
2018-01-07T00:58:24.557Z,14.33
2018-01-07T00:59:24.542Z,14.75
2018-01-07T01:00:24.532Z,14.95
2018-01-07T01:01:24.524Z,14.15
2018-01-07T01:02:24.521Z,14.74
2018-01-07T01:03:24.513Z,15.17
2018-01-07T01:04:24.503Z,15.04
2018-01-07T01:05:24.496Z,14.62
2018-01-07T01:06:24.497Z,14.47
2018-01-07T01:07:24.480Z,15.08
2018-01-07T01:08:24.473Z,14.79
2018-01-07T01:09:24.467Z,15.48
2018-01-07T01:10:24.458Z,14.71
2018-01-07T01:11:24.451Z,15.70
2018-01-07T01:12:24.442Z,15.55
2018-01-07T01:13:24.434Z,14.82
2018-01-07T01:14:24.424Z,14.88
2018-01-07T01:15:24.408Z,14.65
2018-01-07T01:16:24.405Z,15.20
2018-01-07T01:17:24.395Z,15.65
2018-01-07T01:18:24.389Z,15.31
2018-01-07T01:19:24.379Z,15.52
2018-01-07T01:20:24.374Z,15.84
2018-01-07T01:21:24.363Z,15.83
2018-01-07T01:22:24.356Z,15.07
2018-01-07T01:23:24.350Z,15.69
2018-01-07T01:24:24.348Z,15.59
2018-01-07T01:25:24.335Z,16.64
2018-01-07T01:26:24.326Z,15.70
2018-01-07T01:27:24.316Z,16.28
2018-01-07T01:28:24.309Z,16.84
2018-01-07T01:29:24.300Z,15.75
2018-01-07T01:30:24.293Z,16.25
2018-01-07T01:31:24.281Z,16.44
2018-01-07T01:32:24.273Z,17.22
2018-01-07T01:33:24.265Z,16.94
2018-01-07T01:34:24.257Z,16.35
2018-01-07T01:35:24.248Z,17.45
2018-01-07T01:36:24.239Z,17.80
2018-01-07T01:37:24.232Z,17.33
2018-01-07T01:38:24.225Z,17.26
2018-01-07T01:39:24.222Z,17.56
2018-01-07T01:40:24.208Z,18.28
2018-01-07T01:41:24.204Z,17.74
2018-01-07T01:42:24.237Z,18.41
2018-01-07T01:43:24.183Z,18.40
2018-01-07T01:44:24.195Z,18.17
2018-01-07T01:45:24.184Z,18.28
2018-01-07T01:46:24.163Z,17.94
2018-01-07T01:47:24.152Z,17.94
2018-01-07T01:48:24.141Z,17.88
2018-01-07T01:49:24.133Z,18.56
2018-01-07T01:50:24.125Z,18.43
2018-01-07T01:51:24.122Z,18.55
2018-01-07T01:52:24.110Z,17.92
2018-01-07T01:53:24.100Z,17.76
2018-01-07T01:54:24.092Z,18.62
2018-01-07T01:55:24.093Z,18.44
2018-01-07T01:56:24.079Z,18.93
2018-01-07T01:57:24.070Z,17.61
2018-01-07T01:58:24.061Z,18.51
2018-01-07T01:59:24.051Z,18.06
2018-01-07T02:00:24.042Z,17.89
2018-01-07T02:01:24.036Z,17.82
2018-01-07T02:02:24.034Z,18.65
2018-01-07T02:03:24.022Z,19.04
2018-01-07T02:04:24.017Z,19.32
2018-01-07T02:05:24.002Z,19.27
2018-01-07T02:06:23.999Z,18.76
2018-01-07T02:07:23.991Z,18.75
2018-01-07T02:08:23.984Z,18.65
2018-01-07T02:09:23.974Z,18.92
2018-01-07T02:10:23.968Z,19.19
2018-01-07T02:11:23.955Z,19.71
2018-01-07T02:12:23.946Z,19.90
2018-01-07T02:13:23.941Z,20.30
2018-01-07T02:14:23.932Z,19.42
2018-01-07T02:15:23.922Z,18.98
2018-01-07T02:16:23.913Z,19.55
2018-01-07T02:17:23.905Z,19.05
2018-01-07T02:18:23.898Z,19.64
2018-01-07T02:19:23.890Z,20.10
2018-01-07T02:20:23.885Z,19.41
2018-01-07T02:21:23.875Z,20.30
2018-01-07T02:22:23.867Z,19.86
2018-01-07T02:23:23.858Z,20.46
2018-01-07T02:24:23.852Z,20.52
2018-01-07T02:25:24.454Z,20.05
2018-01-07T02:26:23.831Z,21.11
2018-01-07T02:27:23.822Z,21.01
2018-01-07T02:28:23.814Z,21.22
2018-01-07T02:29:23.805Z,20.94
2018-01-07T02:30:23.797Z,21.75
2018-01-07T02:31:23.791Z,21.38
2018-01-07T02:32:23.784Z,22.22
2018-01-07T02:33:23.775Z,21.33
2018-01-07T02:34:23.780Z,22.53
2018-01-07T02:35:23.759Z,22.36
2018-01-07T02:36:23.753Z,22.52
2018-01-07T02:37:23.743Z,22.79
2018-01-07T02:38:23.737Z,21.84
2018-01-07T02:39:23.724Z,22.21
2018-01-07T02:40:23.714Z,22.88
2018-01-07T02:41:23.718Z,22.82
2018-01-07T02:42:23.705Z,23.44
2018-01-07T02:43:23.697Z,23.39
2018-01-07T02:44:23.684Z,23.40
2018-01-07T02:45:23.676Z,23.87
2018-01-07T02:46:23.667Z,24.04
2018-01-07T02:47:23.659Z,23.26
2018-01-07T02:48:23.650Z,23.19
2018-01-07T02:49:23.683Z,23.58
2018-01-07T02:50:23.636Z,23.86
2018-01-07T02:51:23.627Z,23.85
2018-01-07T02:52:23.621Z,24.58
2018-01-07T02:53:23.617Z,25.00
2018-01-07T02:54:23.610Z,25.08
2018-01-07T02:55:23.593Z,24.74
2018-01-07T02:56:23.589Z,24.86
2018-01-07T02:57:23.582Z,25.52
2018-01-07T02:58:23.571Z,25.24
2018-01-07T02:59:23.560Z,26.08
2018-01-07T03:00:23.552Z,26.77
2018-01-07T03:01:23.542Z,26.88
2018-01-07T03:02:23.535Z,27.19
2018-01-07T03:03:23.530Z,27.64
2018-01-07T03:04:23.522Z,28.33
2018-01-07T03:05:23.515Z,27.90
2018-01-07T03:06:23.510Z,28.30
2018-01-07T03:07:23.498Z,28.22
2018-01-07T03:08:23.486Z,28.76
2018-01-07T03:09:23.477Z,29.22
2018-01-07T03:10:23.471Z,29.91
2018-01-07T03:11:23.459Z,29.77
2018-01-07T03:12:23.451Z,29.53
2018-01-07T03:13:23.446Z,29.43
2018-01-07T03:14:23.434Z,29.42
2018-01-07T03:15:23.432Z,29.80
2018-01-07T03:16:23.422Z,29.69
2018-01-07T03:17:23.414Z,30.41
2018-01-07T03:18:23.407Z,30.50
2018-01-07T03:19:23.396Z,29.08
2018-01-07T03:20:23.392Z,30.78
2018-01-07T03:21:23.382Z,29.46
2018-01-07T03:22:23.373Z,30.01
2018-01-07T03:23:23.360Z,29.46
2018-01-07T03:24:23.352Z,28.76
2018-01-07T03:25:23.343Z,29.91
2018-01-07T03:26:23.335Z,29.22
2018-01-07T03:27:23.329Z,29.34
2018-01-07T03:28:23.320Z,29.73
2018-01-07T03:29:23.315Z,28.68
2018-01-07T03:30:23.302Z,29.12
2018-01-07T03:31:23.298Z,28.35
2018-01-07T03:32:23.289Z,29.38
2018-01-07T03:33:23.284Z,29.01
2018-01-07T03:34:23.277Z,27.64
2018-01-07T03:35:23.266Z,30.42
2018-01-07T03:36:23.255Z,30.76
2018-01-07T03:37:23.245Z,30.11
2018-01-07T03:38:23.240Z,30.22
2018-01-07T03:39:23.227Z,29.75
2018-01-07T03:40:23.218Z,29.51
2018-01-07T03:41:23.211Z,29.06
2018-01-07T03:42:23.203Z,29.83
2018-01-07T03:43:23.195Z,29.55
2018-01-07T03:44:23.182Z,28.84
2018-01-07T03:45:23.177Z,26.26
2018-01-07T03:46:23.172Z,27.31
2018-01-07T03:47:23.168Z,27.11
2018-01-07T03:48:23.159Z,27.82
2018-01-07T03:49:23.149Z,28.04
2018-01-07T03:50:23.138Z,28.70
2018-01-07T03:51:23.126Z,29.13
2018-01-07T03:52:23.123Z,28.85
2018-01-07T03:53:23.113Z,27.55
2018-01-07T03:54:23.105Z,26.95
2018-01-07T03:55:23.093Z,28.32
2018-01-07T03:56:23.085Z,27.31
2018-01-07T03:57:23.074Z,25.77
2018-01-07T03:58:23.065Z,24.66
2018-01-07T03:59:23.061Z,26.26
2018-01-07T04:00:23.050Z,25.62
2018-01-07T04:01:23.042Z,24.56
2018-01-07T04:02:23.034Z,24.60
2018-01-07T04:03:23.030Z,25.43
2018-01-07T04:04:23.020Z,25.13
2018-01-07T04:05:23.015Z,24.65
2018-01-07T04:06:23.004Z,24.88
2018-01-07T04:07:22.995Z,24.03
2018-01-07T04:08:22.988Z,23.94
2018-01-07T04:09:22.978Z,23.85
2018-01-07T04:10:22.970Z,23.88
2018-01-07T04:11:22.956Z,24.45
2018-01-07T04:12:22.949Z,25.19
2018-01-07T04:13:22.946Z,24.96
2018-01-07T04:14:22.935Z,24.47
2018-01-07T04:15:22.924Z,22.49
2018-01-07T04:16:22.918Z,23.32
2018-01-07T04:17:22.910Z,23.29
2018-01-07T04:18:22.900Z,23.42
2018-01-07T04:19:22.889Z,22.07
2018-01-07T04:20:22.888Z,21.30
2018-01-07T04:21:22.875Z,21.87
2018-01-07T04:22:22.868Z,19.91
2018-01-07T04:23:22.872Z,20.75
2018-01-07T04:24:22.846Z,19.67
2018-01-07T04:25:22.834Z,19.84
2018-01-07T04:26:22.841Z,18.40
2018-01-07T04:27:22.822Z,19.39
2018-01-07T04:28:22.813Z,20.21
2018-01-07T04:29:22.806Z,20.35
2018-01-07T04:30:22.796Z,20.75
2018-01-07T04:31:22.780Z,20.55
2018-01-07T04:32:22.771Z,20.98
2018-01-07T04:33:22.774Z,20.55
2018-01-07T04:34:22.761Z,20.16
2018-01-07T04:35:22.755Z,19.45
2018-01-07T04:36:22.750Z,19.87
2018-01-07T04:37:22.743Z,19.31
2018-01-07T04:38:22.730Z,18.54
2018-01-07T04:39:22.724Z,19.15
2018-01-07T04:40:22.714Z,18.14
2018-01-07T04:41:22.704Z,17.80
2018-01-07T04:42:22.692Z,18.18
2018-01-07T04:43:22.682Z,18.39
2018-01-07T04:44:22.673Z,17.72
2018-01-07T04:45:22.665Z,17.19
2018-01-07T04:46:22.658Z,16.70
2018-01-07T04:47:22.648Z,17.16
2018-01-07T04:48:22.640Z,16.82
2018-01-07T04:49:22.633Z,16.20
2018-01-07T04:50:22.627Z,17.06
2018-01-07T04:51:22.616Z,16.44
2018-01-07T04:52:22.607Z,17.01
2018-01-07T04:53:22.602Z,16.70
2018-01-07T04:54:22.594Z,16.71
2018-01-07T04:55:22.573Z,16.86
2018-01-07T04:56:22.604Z,16.86
2018-01-07T04:57:22.567Z,17.02
2018-01-07T04:58:22.562Z,17.04
2018-01-07T04:59:22.546Z,16.38
2018-01-07T05:00:22.538Z,16.06
2018-01-07T05:01:22.544Z,15.47
2018-01-07T05:02:22.524Z,15.82
2018-01-07T05:03:22.512Z,15.39
2018-01-07T05:04:22.503Z,15.66
2018-01-07T05:05:22.493Z,15.42
2018-01-07T05:06:22.486Z,15.18
2018-01-07T05:07:22.480Z,14.94
2018-01-07T05:08:22.476Z,14.19
2018-01-07T05:09:22.465Z,14.54
2018-01-07T05:10:22.457Z,13.60
2018-01-07T05:11:22.447Z,13.47
2018-01-07T05:12:22.436Z,13.37
2018-01-07T05:13:22.429Z,14.10
2018-01-07T05:14:22.420Z,12.90
2018-01-07T05:15:22.415Z,12.97
2018-01-07T05:16:22.403Z,13.62
2018-01-07T05:17:22.398Z,13.77
2018-01-07T05:18:22.388Z,14.21
2018-01-07T05:19:22.378Z,13.43
2018-01-07T05:20:22.367Z,13.03
2018-01-07T05:21:22.356Z,13.18
2018-01-07T05:22:22.364Z,13.19
2018-01-07T05:23:22.341Z,12.97
2018-01-07T05:24:22.332Z,12.59
2018-01-07T05:25:22.329Z,12.38
2018-01-07T05:26:22.316Z,11.79
2018-01-07T05:27:22.305Z,12.58
2018-01-07T05:28:22.296Z,12.65
2018-01-07T05:29:22.290Z,12.61
2018-01-07T05:30:22.280Z,12.12
2018-01-07T05:31:22.277Z,12.21
2018-01-07T05:32:22.267Z,12.12
2018-01-07T05:33:22.258Z,11.74
2018-01-07T05:34:22.252Z,12.09
2018-01-07T05:35:22.238Z,12.13
2018-01-07T05:36:22.233Z,11.49
2018-01-07T05:37:22.224Z,11.42
2018-01-07T05:38:22.215Z,11.90
2018-01-07T05:39:22.203Z,11.26
2018-01-07T05:40:22.194Z,11.85
2018-01-07T05:41:22.190Z,11.10
2018-01-07T05:42:22.178Z,11.34
2018-01-07T05:43:22.169Z,11.18
2018-01-07T05:44:22.163Z,11.11
2018-01-07T05:45:22.155Z,11.20
2018-01-07T05:46:22.146Z,10.02
2018-01-07T05:47:22.144Z,10.48
2018-01-07T05:48:22.129Z,9.87
2018-01-07T05:49:22.120Z,10.11
2018-01-07T05:50:22.114Z,10.04
2018-01-07T05:51:22.106Z,9.45
2018-01-07T05:52:22.096Z,9.86
2018-01-07T05:53:22.088Z,9.89
2018-01-07T05:54:22.081Z,10.64
2018-01-07T05:55:22.067Z,9.90
2018-01-07T05:56:22.060Z,9.95
2018-01-07T05:57:22.051Z,10.56
2018-01-07T05:58:22.045Z,9.06
2018-01-07T05:59:22.035Z,8.86
2018-01-07T06:00:22.031Z,9.96
2018-01-07T06:01:22.020Z,10.32
2018-01-07T06:02:22.007Z,9.51
2018-01-07T06:03:22.001Z,9.40
2018-01-07T06:04:22.527Z,9.58
2018-01-07T06:05:21.985Z,9.41
2018-01-07T06:06:21.976Z,9.36
2018-01-07T06:07:21.972Z,9.38
2018-01-07T06:08:21.961Z,9.14
2018-01-07T06:09:21.952Z,9.10
2018-01-07T06:10:21.942Z,8.74
2018-01-07T06:11:21.932Z,8.93
2018-01-07T06:12:21.921Z,9.07
2018-01-07T06:13:21.914Z,8.71
2018-01-07T06:14:21.906Z,8.81
2018-01-07T06:15:21.910Z,9.04
2018-01-07T06:16:21.892Z,8.76
2018-01-07T06:17:21.883Z,8.53
2018-01-07T06:18:21.876Z,8.49
2018-01-07T06:19:21.864Z,8.40
2018-01-07T06:20:21.855Z,8.69
2018-01-07T06:21:21.847Z,7.95
2018-01-07T06:22:21.838Z,8.07
2018-01-07T06:23:21.829Z,8.36
2018-01-07T06:24:21.822Z,8.38
2018-01-07T06:25:21.812Z,8.07
2018-01-07T06:26:21.806Z,8.18
2018-01-07T06:27:21.798Z,7.57
2018-01-07T06:28:21.791Z,7.20
2018-01-07T06:29:21.785Z,7.45
2018-01-07T06:30:21.777Z,7.56
2018-01-07T06:31:21.766Z,7.33
2018-01-07T06:32:21.758Z,7.17
2018-01-07T06:33:21.750Z,7.26
2018-01-07T06:34:21.739Z,7.24
2018-01-07T06:35:21.727Z,7.18
2018-01-07T06:36:21.721Z,7.35
2018-01-07T06:37:21.714Z,7.25
2018-01-07T06:38:21.704Z,6.64
2018-01-07T06:39:21.696Z,7.44
2018-01-07T06:40:21.687Z,6.71
2018-01-07T06:41:21.679Z,6.96
2018-01-07T06:42:21.670Z,6.63
2018-01-07T06:43:21.661Z,6.69
2018-01-07T06:44:21.651Z,6.75
2018-01-07T06:45:21.647Z,6.24
2018-01-07T06:46:21.645Z,6.25
2018-01-07T06:47:21.623Z,6.87
2018-01-07T06:48:21.622Z,6.50
2018-01-07T06:49:21.613Z,6.62
2018-01-07T06:50:21.613Z,6.54
2018-01-07T06:51:21.592Z,6.25
2018-01-07T06:52:21.584Z,5.83
2018-01-07T06:53:21.576Z,6.32
2018-01-07T06:54:21.572Z,6.06
2018-01-07T06:55:21.558Z,6.44
2018-01-07T06:56:21.551Z,6.43
2018-01-07T06:57:21.544Z,6.14
2018-01-07T06:58:21.533Z,5.90
2018-01-07T06:59:21.542Z,5.88
2018-01-07T07:00:21.519Z,5.96
2018-01-07T07:01:21.513Z,6.13
2018-01-07T07:02:21.503Z,5.98
2018-01-07T07:03:21.497Z,5.86
2018-01-07T07:04:21.483Z,5.53
2018-01-07T07:05:21.480Z,5.71
2018-01-07T07:06:21.472Z,5.63
2018-01-07T07:07:21.460Z,5.79
2018-01-07T07:08:21.450Z,6.44
2018-01-07T07:09:21.441Z,5.84
2018-01-07T07:10:21.434Z,5.43
2018-01-07T07:11:21.424Z,5.07
2018-01-07T07:12:21.413Z,5.50
2018-01-07T07:13:21.407Z,5.70
2018-01-07T07:14:21.398Z,5.57
2018-01-07T07:15:21.384Z,5.80
2018-01-07T07:16:21.383Z,5.57
2018-01-07T07:17:21.376Z,5.23
2018-01-07T07:18:21.375Z,5.30
2018-01-07T07:19:21.352Z,5.07
2018-01-07T07:20:21.349Z,5.20
2018-01-07T07:21:21.337Z,5.19
2018-01-07T07:22:21.330Z,5.54
2018-01-07T07:23:21.326Z,5.45
2018-01-07T07:24:21.317Z,5.21
2018-01-07T07:25:21.310Z,5.18
2018-01-07T07:26:21.301Z,5.36
2018-01-07T07:27:21.292Z,4.98
2018-01-07T07:28:21.281Z,4.54
2018-01-07T07:29:21.288Z,4.98
2018-01-07T07:30:21.266Z,4.37
2018-01-07T07:31:21.254Z,4.60
2018-01-07T07:32:21.242Z,4.41
2018-01-07T07:33:21.235Z,4.07
2018-01-07T07:34:22.053Z,4.34
2018-01-07T07:35:21.218Z,4.29
2018-01-07T07:36:21.214Z,4.41
2018-01-07T07:37:21.202Z,4.19
2018-01-07T07:38:21.202Z,3.91
2018-01-07T07:39:21.189Z,3.95
2018-01-07T07:40:21.181Z,3.83
2018-01-07T07:41:21.173Z,4.33
2018-01-07T07:42:21.162Z,4.18
2018-01-07T07:43:21.152Z,3.93
2018-01-07T07:44:21.145Z,3.88
2018-01-07T07:45:21.130Z,3.94
2018-01-07T07:46:21.128Z,3.97
2018-01-07T07:47:21.116Z,3.59
2018-01-07T07:48:21.111Z,3.83
2018-01-07T07:49:21.097Z,4.21
2018-01-07T07:50:21.093Z,3.86
2018-01-07T07:51:21.599Z,3.93
2018-01-07T07:52:21.072Z,3.74
2018-01-07T07:53:21.063Z,3.68
2018-01-07T07:54:21.055Z,3.28
2018-01-07T07:55:21.049Z,2.91
2018-01-07T07:56:21.044Z,3.12
2018-01-07T07:57:21.026Z,2.84
2018-01-07T07:58:21.030Z,2.88
2018-01-07T07:59:21.016Z,2.87
2018-01-07T08:00:21.006Z,2.63
2018-01-07T08:01:20.997Z,2.61
2018-01-07T08:02:20.990Z,2.65
2018-01-07T08:03:20.976Z,2.50
2018-01-07T08:04:20.970Z,2.61
2018-01-07T08:05:20.959Z,2.51
2018-01-07T08:06:20.952Z,2.50
2018-01-07T08:07:20.939Z,2.28
2018-01-07T08:08:20.933Z,2.16
2018-01-07T08:09:20.926Z,2.10
2018-01-07T08:10:20.921Z,1.95
2018-01-07T08:11:20.916Z,1.98
2018-01-07T08:12:20.916Z,1.95
2018-01-07T08:13:20.895Z,1.95
2018-01-07T08:14:20.884Z,1.85
2018-01-07T08:15:20.875Z,1.88
2018-01-07T08:16:20.872Z,1.80
2018-01-07T08:17:20.861Z,1.72
2018-01-07T08:18:20.852Z,1.65
2018-01-07T08:19:20.837Z,1.74
2018-01-07T08:20:20.829Z,1.79
2018-01-07T08:21:20.823Z,2.25
2018-01-07T08:22:20.814Z,1.84
2018-01-07T08:23:20.805Z,1.83
2018-01-07T08:24:21.575Z,1.80
2018-01-07T08:25:20.791Z,1.96
2018-01-07T08:26:20.781Z,1.86
2018-01-07T08:27:20.777Z,1.79
2018-01-07T08:28:20.770Z,1.68
2018-01-07T08:29:20.760Z,1.65
2018-01-07T08:30:20.747Z,2.00
2018-01-07T08:31:20.740Z,1.80
2018-01-07T08:32:20.739Z,1.81
2018-01-07T08:33:20.723Z,1.77
2018-01-07T08:34:20.715Z,1.67
2018-01-07T08:35:20.699Z,1.87
2018-01-07T08:36:20.695Z,1.91
2018-01-07T08:37:20.687Z,1.89
2018-01-07T08:38:20.677Z,1.86
2018-01-07T08:39:20.680Z,1.75
2018-01-07T08:40:20.660Z,1.74
2018-01-07T08:41:20.653Z,1.78
2018-01-07T08:42:20.643Z,1.82
2018-01-07T08:43:20.645Z,1.70
2018-01-07T08:44:20.630Z,1.75
2018-01-07T08:45:20.621Z,1.88
2018-01-07T08:46:20.615Z,1.71
2018-01-07T08:47:20.605Z,1.68
2018-01-07T08:48:20.596Z,1.70
2018-01-07T08:49:20.590Z,1.81
2018-01-07T08:50:20.586Z,1.88
2018-01-07T08:51:20.566Z,2.12
2018-01-07T08:52:20.558Z,1.80
2018-01-07T08:53:20.552Z,1.74
2018-01-07T08:54:20.542Z,1.68
2018-01-07T08:55:20.537Z,1.81
2018-01-07T08:56:20.525Z,1.56
2018-01-07T08:57:20.519Z,1.66
2018-01-07T08:58:20.510Z,1.78
2018-01-07T08:59:20.504Z,1.68
2018-01-07T09:00:20.500Z,1.73
2018-01-07T09:01:20.650Z,1.80
2018-01-07T09:02:20.480Z,1.88
2018-01-07T09:03:20.472Z,1.84
2018-01-07T09:04:20.464Z,1.70
2018-01-07T09:05:20.456Z,1.55
2018-01-07T09:06:20.444Z,1.73
2018-01-07T09:07:20.435Z,1.70
2018-01-07T09:08:20.469Z,1.71
2018-01-07T09:09:20.418Z,1.64
2018-01-07T09:10:20.415Z,1.82
2018-01-07T09:11:20.399Z,1.62
2018-01-07T09:12:20.393Z,1.83
2018-01-07T09:13:20.387Z,1.79
2018-01-07T09:14:20.380Z,1.76
2018-01-07T09:15:20.372Z,1.73
2018-01-07T09:16:20.363Z,1.56
2018-01-07T09:17:20.356Z,1.56
2018-01-07T09:18:20.345Z,1.66
2018-01-07T09:19:20.336Z,1.75
2018-01-07T09:20:20.333Z,1.63
2018-01-07T09:21:20.322Z,1.49
2018-01-07T09:22:20.310Z,1.64
2018-01-07T09:23:20.302Z,1.61
2018-01-07T09:24:20.294Z,1.70
2018-01-07T09:25:20.291Z,1.49
2018-01-07T09:26:20.280Z,1.35
2018-01-07T09:27:20.274Z,1.44
2018-01-07T09:28:20.268Z,1.62
2018-01-07T09:29:20.255Z,1.47
2018-01-07T09:30:20.260Z,1.60
2018-01-07T09:31:20.239Z,1.48
2018-01-07T09:32:20.227Z,1.42
2018-01-07T09:33:20.222Z,1.39
2018-01-07T09:34:20.218Z,1.35
2018-01-07T09:35:20.204Z,1.58
2018-01-07T09:36:20.225Z,1.37
2018-01-07T09:37:20.190Z,1.37
2018-01-07T09:38:20.183Z,1.07
2018-01-07T09:39:20.174Z,1.14
2018-01-07T09:40:20.213Z,1.18
2018-01-07T09:41:20.160Z,1.18
2018-01-07T09:42:20.156Z,1.10
2018-01-07T09:43:20.139Z,1.18
2018-01-07T09:44:20.137Z,1.15
2018-01-07T09:45:20.131Z,1.08
2018-01-07T09:46:20.122Z,1.05
2018-01-07T09:47:20.113Z,1.11
2018-01-07T09:48:20.102Z,1.10
2018-01-07T09:49:20.097Z,1.15
2018-01-07T09:50:20.093Z,1.06
2018-01-07T09:51:20.080Z,1.02
2018-01-07T09:52:20.076Z,0.99
2018-01-07T09:53:20.064Z,1.02
2018-01-07T09:54:20.055Z,1.10
2018-01-07T09:55:20.050Z,1.09
2018-01-07T09:56:20.044Z,1.20
2018-01-07T09:57:20.040Z,1.07
2018-01-07T09:58:20.027Z,1.00
2018-01-07T09:59:20.020Z,1.09
2018-01-07T10:00:20.016Z,1.19
2018-01-07T10:01:20.823Z,1.10
2018-01-07T10:02:19.993Z,1.07
2018-01-07T10:03:19.986Z,1.13
2018-01-07T10:04:19.979Z,1.08
2018-01-07T10:05:20.549Z,1.04
2018-01-07T10:06:19.966Z,1.08
2018-01-07T10:07:19.963Z,1.09
2018-01-07T10:08:21.466Z,1.12
2018-01-07T10:09:19.939Z,1.22
2018-01-07T10:10:19.937Z,1.20
2018-01-07T10:11:19.927Z,1.21
2018-01-07T10:12:20.403Z,1.20
2018-01-07T10:13:19.912Z,1.20
2018-01-07T10:14:19.899Z,1.14
2018-01-07T10:15:19.905Z,1.15
2018-01-07T10:16:19.887Z,1.22
2018-01-07T10:17:19.897Z,1.20
2018-01-07T10:18:19.870Z,1.20
2018-01-07T10:19:19.861Z,1.04
2018-01-07T10:20:19.855Z,1.04
2018-01-07T10:21:19.846Z,1.10
2018-01-07T10:22:19.838Z,1.18
2018-01-07T10:23:19.842Z,1.25
2018-01-07T10:24:19.821Z,1.26
2018-01-07T10:25:19.814Z,1.27
2018-01-07T10:26:19.813Z,1.28
2018-01-07T10:27:19.810Z,1.18
2018-01-07T10:28:19.809Z,1.24
2018-01-07T10:29:19.792Z,1.26
2018-01-07T10:30:19.781Z,1.07
2018-01-07T10:31:19.801Z,1.26
2018-01-07T10:32:19.771Z,1.18
2018-01-07T10:33:19.757Z,1.10
2018-01-07T10:34:19.749Z,1.19
2018-01-07T10:35:19.741Z,1.32
2018-01-07T10:36:19.734Z,1.26
2018-01-07T10:37:23.544Z,1.06
2018-01-07T10:38:19.721Z,1.19
2018-01-07T10:39:19.711Z,1.23
2018-01-07T10:40:19.705Z,1.15
2018-01-07T10:41:19.694Z,1.13
2018-01-07T10:42:19.689Z,1.26
2018-01-07T10:43:19.676Z,1.34
2018-01-07T10:44:19.669Z,1.40
2018-01-07T10:45:19.666Z,1.25
2018-01-07T10:46:19.654Z,1.18
2018-01-07T10:47:19.644Z,1.20
2018-01-07T10:48:19.653Z,1.19
2018-01-07T10:49:19.629Z,1.18
2018-01-07T10:50:19.634Z,1.13
2018-01-07T10:51:19.617Z,1.30
2018-01-07T10:52:19.610Z,1.23
2018-01-07T10:53:19.602Z,1.10
2018-01-07T10:54:19.594Z,1.13
2018-01-07T10:55:19.589Z,1.06
2018-01-07T10:56:19.583Z,1.06
2018-01-07T10:57:19.575Z,1.13
2018-01-07T10:58:19.565Z,1.04
2018-01-07T10:59:19.553Z,1.16
2018-01-07T11:00:19.550Z,1.25
2018-01-07T11:01:19.528Z,1.18
2018-01-07T11:02:19.530Z,1.21
2018-01-07T11:03:19.522Z,1.21
2018-01-07T11:04:21.707Z,1.34
2018-01-07T11:05:19.505Z,1.22
2018-01-07T11:06:19.497Z,1.13
2018-01-07T11:07:19.500Z,1.26
2018-01-07T11:08:19.485Z,1.23
2018-01-07T11:09:19.481Z,1.41
2018-01-07T11:10:19.470Z,1.28
2018-01-07T11:11:23.572Z,1.16
2018-01-07T11:12:19.456Z,1.30
2018-01-07T11:13:19.449Z,1.20
2018-01-07T11:14:19.436Z,1.20
2018-01-07T11:15:19.429Z,1.20
2018-01-07T11:16:19.418Z,1.28
2018-01-07T11:17:19.413Z,1.22
2018-01-07T11:18:19.404Z,1.12
2018-01-07T11:19:19.396Z,1.20
2018-01-07T11:20:19.388Z,1.20
2018-01-07T11:21:19.381Z,1.17
2018-01-07T11:22:19.375Z,1.10
2018-01-07T11:23:19.367Z,1.28
2018-01-07T11:24:19.369Z,3.84
2018-01-07T11:25:19.353Z,2.74
2018-01-07T11:26:19.368Z,1.99
2018-01-07T11:27:19.336Z,7.65
2018-01-07T11:28:19.330Z,6.93
2018-01-07T11:29:19.322Z,7.16
2018-01-07T11:30:19.315Z,4.36
2018-01-07T11:31:19.484Z,2.01
2018-01-07T11:32:19.297Z,2.33
2018-01-07T11:33:19.289Z,1.98
2018-01-07T11:34:19.285Z,2.12
2018-01-07T11:35:19.271Z,2.24
2018-01-07T11:36:19.268Z,2.10
2018-01-07T11:37:19.257Z,1.87
2018-01-07T11:38:19.254Z,2.12
2018-01-07T11:39:19.245Z,1.63
2018-01-07T11:40:19.246Z,1.60
2018-01-07T11:41:19.226Z,1.40
2018-01-07T11:42:19.219Z,1.37
2018-01-07T11:43:19.211Z,1.50
2018-01-07T11:44:19.202Z,1.31
2018-01-07T11:45:19.198Z,1.54
2018-01-07T11:46:19.200Z,1.22
2018-01-07T11:47:19.184Z,1.32
2018-01-07T11:48:19.176Z,1.33
2018-01-07T11:49:19.168Z,1.24
2018-01-07T11:50:19.159Z,1.29
2018-01-07T11:51:19.154Z,1.37
2018-01-07T11:52:19.143Z,1.24
2018-01-07T11:53:19.138Z,1.34
2018-01-07T11:54:19.129Z,1.19
2018-01-07T11:55:19.148Z,1.20
2018-01-07T11:56:19.110Z,1.20
2018-01-07T11:57:19.106Z,1.24
2018-01-07T11:58:19.096Z,1.25
2018-01-07T11:59:19.085Z,1.24
2018-01-07T12:00:19.078Z,1.08
2018-01-07T12:01:19.072Z,1.25
2018-01-07T12:02:19.066Z,1.20
2018-01-07T12:03:19.060Z,1.08
2018-01-07T12:04:19.054Z,1.32
2018-01-07T12:05:19.046Z,1.26
2018-01-07T12:06:19.054Z,1.05
2018-01-07T12:07:19.030Z,1.02
2018-01-07T12:08:19.023Z,1.16
2018-01-07T12:09:19.012Z,1.16
2018-01-07T12:10:19.006Z,1.17
2018-01-07T12:11:18.993Z,1.21
2018-01-07T12:12:18.982Z,1.16
2018-01-07T12:13:19.650Z,1.37
2018-01-07T12:13:30.976Z,0.06
2018-01-07T12:15:18.965Z,1.16
2018-01-07T12:16:18.954Z,1.09
2018-01-07T12:17:18.948Z,1.05
2018-01-07T12:18:18.938Z,1.14
2018-01-07T12:19:18.925Z,1.13
2018-01-07T12:20:18.926Z,1.22
2018-01-07T12:21:18.920Z,1.42
2018-01-07T12:22:18.910Z,1.33
2018-01-07T12:23:18.906Z,1.16
2018-01-07T12:24:18.897Z,1.29
2018-01-07T12:25:18.890Z,1.33
2018-01-07T12:26:18.882Z,1.29
2018-01-07T12:27:18.870Z,1.23
2018-01-07T12:28:18.875Z,1.12
2018-01-07T12:29:18.853Z,1.10
2018-01-07T12:30:18.844Z,1.18
2018-01-07T12:31:18.836Z,1.10
2018-01-07T12:32:18.825Z,1.63
2018-01-07T12:33:18.821Z,1.91
2018-01-07T12:34:18.816Z,1.30
2018-01-07T12:35:18.813Z,1.38
2018-01-07T12:36:18.802Z,1.33
2018-01-07T12:37:18.788Z,1.74
2018-01-07T12:38:18.781Z,1.97
2018-01-07T12:39:18.778Z,1.62
2018-01-07T12:40:18.768Z,1.76
2018-01-07T12:41:18.753Z,1.69
2018-01-07T12:42:18.754Z,1.59
2018-01-07T12:43:18.747Z,1.48
2018-01-07T12:44:18.746Z,1.46
2018-01-07T12:45:18.733Z,1.39
2018-01-07T12:46:18.727Z,1.34
2018-01-07T12:47:18.715Z,1.51
2018-01-07T12:48:18.714Z,1.43
2018-01-07T12:49:18.697Z,1.22
2018-01-07T12:50:18.706Z,1.62
2018-01-07T12:51:18.702Z,1.45
2018-01-07T12:52:18.682Z,1.51
2018-01-07T12:53:18.669Z,1.48
2018-01-07T12:54:18.659Z,1.58
2018-01-07T12:55:18.654Z,1.34
2018-01-07T12:56:18.639Z,1.36
2018-01-07T12:57:18.640Z,1.44
2018-01-07T12:58:18.626Z,1.40
2018-01-07T12:59:18.678Z,1.20
2018-01-07T13:00:18.617Z,1.13
2018-01-07T13:01:18.614Z,1.19
2018-01-07T13:02:18.603Z,1.39
2018-01-07T13:03:18.595Z,1.50
2018-01-07T13:04:18.589Z,1.75
2018-01-07T13:05:18.580Z,1.57
2018-01-07T13:06:18.572Z,1.39